sensor_id;sensor_type;location;lat;lon;timestamp;P1;durP1;ratioP1;P2;durP2;ratioP2
71413;SDS011;59226;53.212;5.728;2023-10-09T00:00:05;5.03;;;2.00;;
71413;SDS011;59226;53.212;5.728;2023-10-09T00:02:50;6.50;;;2.80;;
71413;SDS011;59226;53.212;5.728;2023-10-09T00:05:16;6.10;;;2.33;;
71413;SDS011;59226;53.212;5.728;2023-10-09T00:08:01;5.25;;;3.45;;
71413;SDS011;59226;53.212;5.728;2023-10-09T00:10:28;9.18;;;3.78;;
71413;SDS011;59226;53.212;5.728;2023-10-09T00:13:01;17.37;;;3.60;;
71413;SDS011;59226;53.212;5.728;2023-10-09T00:15:27;8.18;;;3.55;;
71413;SDS011;59226;53.212;5.728;2023-10-09T00:17:53;10.48;;;3.47;;
71413;SDS011;59226;53.212;5.728;2023-10-09T00:20:21;6.18;;;3.28;;
71413;SDS011;59226;53.212;5.728;2023-10-09T00:22:49;5.82;;;2.92;;
71413;SDS011;59226;53.212;5.728;2023-10-09T00:25:16;8.73;;;3.20;;
71413;SDS011;59226;53.212;5.728;2023-10-09T00:27:54;8.57;;;3.50;;
71413;SDS011;59226;53.212;5.728;2023-10-09T00:30:20;7.95;;;3.22;;
71413;SDS011;59226;53.212;5.728;2023-10-09T00:32:54;9.83;;;2.77;;
71413;SDS011;59226;53.212;5.728;2023-10-09T00:35:32;9.15;;;3.63;;
71413;SDS011;59226;53.212;5.728;2023-10-09T00:38:09;9.32;;;4.03;;
71413;SDS011;59226;53.212;5.728;2023-10-09T00:40:48;8.15;;;3.55;;
71413;SDS011;59226;53.212;5.728;2023-10-09T00:43:21;7.00;;;3.55;;
71413;SDS011;59226;53.212;5.728;2023-10-09T00:45:53;7.00;;;3.23;;
71413;SDS011;59226;53.212;5.728;2023-10-09T00:48:18;6.38;;;3.13;;
71413;SDS011;59226;53.212;5.728;2023-10-09T00:50:56;7.53;;;2.80;;
71413;SDS011;59226;53.212;5.728;2023-10-09T00:53:25;11.35;;;3.30;;
71413;SDS011;59226;53.212;5.728;2023-10-09T00:55:58;10.38;;;3.88;;
71413;SDS011;59226;53.212;5.728;2023-10-09T00:58:29;7.63;;;3.08;;
71413;SDS011;59226;53.212;5.728;2023-10-09T01:00:56;11.52;;;4.05;;
71413;SDS011;59226;53.212;5.728;2023-10-09T01:03:21;6.77;;;3.57;;
71413;SDS011;59226;53.212;5.728;2023-10-09T01:08:21;7.10;;;3.78;;
71413;SDS011;59226;53.212;5.728;2023-10-09T01:10:54;7.15;;;3.20;;
71413;SDS011;59226;53.212;5.728;2023-10-09T01:13:24;10.75;;;4.28;;
71413;SDS011;59226;53.212;5.728;2023-10-09T01:16:05;7.10;;;3.10;;
71413;SDS011;59226;53.212;5.728;2023-10-09T01:18:30;5.67;;;2.80;;
71413;SDS011;59226;53.212;5.728;2023-10-09T01:21:01;8.43;;;5.28;;
71413;SDS011;59226;53.212;5.728;2023-10-09T01:23:27;11.68;;;4.28;;
71413;SDS011;59226;53.212;5.728;2023-10-09T01:25:54;9.50;;;4.28;;
71413;SDS011;59226;53.212;5.728;2023-10-09T01:28:19;11.37;;;4.83;;
71413;SDS011;59226;53.212;5.728;2023-10-09T01:30:45;8.63;;;3.23;;
71413;SDS011;59226;53.212;5.728;2023-10-09T01:33:12;10.63;;;4.03;;
71413;SDS011;59226;53.212;5.728;2023-10-09T01:35:40;5.50;;;3.07;;
71413;SDS011;59226;53.212;5.728;2023-10-09T01:38:13;9.15;;;3.80;;
71413;SDS011;59226;53.212;5.728;2023-10-09T01:40:40;10.80;;;5.35;;
71413;SDS011;59226;53.212;5.728;2023-10-09T01:43:05;10.60;;;4.60;;
71413;SDS011;59226;53.212;5.728;2023-10-09T01:45:34;8.32;;;3.53;;
71413;SDS011;59226;53.212;5.728;2023-10-09T01:48:07;7.45;;;3.47;;
71413;SDS011;59226;53.212;5.728;2023-10-09T01:50:33;10.77;;;3.53;;
71413;SDS011;59226;53.212;5.728;2023-10-09T01:53:00;9.52;;;4.90;;
71413;SDS011;59226;53.212;5.728;2023-10-09T01:55:31;9.40;;;3.92;;
71413;SDS011;59226;53.212;5.728;2023-10-09T01:58:01;10.77;;;4.60;;
71413;SDS011;59226;53.212;5.728;2023-10-09T02:00:45;11.45;;;5.75;;
71413;SDS011;59226;53.212;5.728;2023-10-09T02:03:14;8.17;;;4.90;;
71413;SDS011;59226;53.212;5.728;2023-10-09T02:05:43;12.02;;;3.55;;
71413;SDS011;59226;53.212;5.728;2023-10-09T02:08:08;6.73;;;3.23;;
71413;SDS011;59226;53.212;5.728;2023-10-09T02:10:38;11.40;;;4.72;;
71413;SDS011;59226;53.212;5.728;2023-10-09T02:13:13;9.02;;;3.90;;
71413;SDS011;59226;53.212;5.728;2023-10-09T02:15:42;11.35;;;4.25;;
71413;SDS011;59226;53.212;5.728;2023-10-09T02:18:07;8.53;;;3.73;;
71413;SDS011;59226;53.212;5.728;2023-10-09T02:20:52;8.52;;;4.05;;
71413;SDS011;59226;53.212;5.728;2023-10-09T02:23:27;10.60;;;3.80;;
71413;SDS011;59226;53.212;5.728;2023-10-09T02:26:03;7.85;;;3.45;;
71413;SDS011;59226;53.212;5.728;2023-10-09T02:28:31;10.60;;;4.93;;
71413;SDS011;59226;53.212;5.728;2023-10-09T02:30:58;8.73;;;3.42;;
71413;SDS011;59226;53.212;5.728;2023-10-09T02:33:25;8.32;;;3.78;;
71413;SDS011;59226;53.212;5.728;2023-10-09T02:35:54;6.65;;;2.95;;
71413;SDS011;59226;53.212;5.728;2023-10-09T02:38:20;8.75;;;3.35;;
71413;SDS011;59226;53.212;5.728;2023-10-09T02:40:51;8.80;;;3.57;;
71413;SDS011;59226;53.212;5.728;2023-10-09T02:43:37;7.38;;;3.92;;
71413;SDS011;59226;53.212;5.728;2023-10-09T02:46:10;4.32;;;1.98;;
71413;SDS011;59226;53.212;5.728;2023-10-09T02:48:40;8.45;;;3.80;;
71413;SDS011;59226;53.212;5.728;2023-10-09T02:51:10;6.63;;;2.63;;
71413;SDS011;59226;53.212;5.728;2023-10-09T02:53:51;8.50;;;2.83;;
71413;SDS011;59226;53.212;5.728;2023-10-09T02:56:16;4.40;;;2.42;;
71413;SDS011;59226;53.212;5.728;2023-10-09T02:58:48;6.70;;;2.13;;
71413;SDS011;59226;53.212;5.728;2023-10-09T03:01:14;6.57;;;3.30;;
71413;SDS011;59226;53.212;5.728;2023-10-09T03:03:40;4.30;;;2.33;;
71413;SDS011;59226;53.212;5.728;2023-10-09T03:06:06;6.60;;;2.42;;
71413;SDS011;59226;53.212;5.728;2023-10-09T03:08:37;3.55;;;1.95;;
71413;SDS011;59226;53.212;5.728;2023-10-09T03:11:02;3.20;;;1.60;;
71413;SDS011;59226;53.212;5.728;2023-10-09T03:13:27;4.43;;;1.77;;
71413;SDS011;59226;53.212;5.728;2023-10-09T03:15:53;1.58;;;1.15;;
71413;SDS011;59226;53.212;5.728;2023-10-09T03:18:19;3.57;;;1.90;;
71413;SDS011;59226;53.212;5.728;2023-10-09T03:20:45;2.25;;;1.00;;
71413;SDS011;59226;53.212;5.728;2023-10-09T03:23:11;5.78;;;1.30;;
71413;SDS011;59226;53.212;5.728;2023-10-09T03:25:39;2.65;;;1.10;;
71413;SDS011;59226;53.212;5.728;2023-10-09T03:28:04;3.30;;;1.30;;
71413;SDS011;59226;53.212;5.728;2023-10-09T03:30:30;6.33;;;2.70;;
71413;SDS011;59226;53.212;5.728;2023-10-09T03:32:57;9.85;;;2.95;;
71413;SDS011;59226;53.212;5.728;2023-10-09T03:35:25;6.93;;;2.28;;
71413;SDS011;59226;53.212;5.728;2023-10-09T03:37:56;4.60;;;1.50;;
71413;SDS011;59226;53.212;5.728;2023-10-09T03:40:37;6.03;;;1.40;;
71413;SDS011;59226;53.212;5.728;2023-10-09T03:43:04;5.22;;;1.85;;
71413;SDS011;59226;53.212;5.728;2023-10-09T03:45:29;7.50;;;2.17;;
71413;SDS011;59226;53.212;5.728;2023-10-09T03:47:56;6.10;;;2.20;;
71413;SDS011;59226;53.212;5.728;2023-10-09T03:50:26;6.55;;;1.77;;
71413;SDS011;59226;53.212;5.728;2023-10-09T03:52:52;7.97;;;1.77;;
71413;SDS011;59226;53.212;5.728;2023-10-09T03:55:17;2.40;;;1.30;;
71413;SDS011;59226;53.212;5.728;2023-10-09T03:57:42;2.03;;;1.20;;
71413;SDS011;59226;53.212;5.728;2023-10-09T04:00:10;8.52;;;2.88;;
71413;SDS011;59226;53.212;5.728;2023-10-09T04:02:52;4.33;;;1.63;;
71413;SDS011;59226;53.212;5.728;2023-10-09T04:05:17;5.40;;;1.92;;
71413;SDS011;59226;53.212;5.728;2023-10-09T04:07:43;5.07;;;1.90;;
71413;SDS011;59226;53.212;5.728;2023-10-09T04:10:08;3.47;;;1.07;;
71413;SDS011;59226;53.212;5.728;2023-10-09T04:13:11;4.25;;;1.67;;
71413;SDS011;59226;53.212;5.728;2023-10-09T04:15:42;3.28;;;1.55;;
71413;SDS011;59226;53.212;5.728;2023-10-09T04:18:07;5.23;;;1.60;;
71413;SDS011;59226;53.212;5.728;2023-10-09T04:20:39;6.40;;;1.57;;
71413;SDS011;59226;53.212;5.728;2023-10-09T04:23:23;10.80;;;2.65;;
71413;SDS011;59226;53.212;5.728;2023-10-09T04:26:00;6.70;;;1.95;;
71413;SDS011;59226;53.212;5.728;2023-10-09T04:28:35;7.97;;;1.15;;
71413;SDS011;59226;53.212;5.728;2023-10-09T04:31:01;5.68;;;2.40;;
71413;SDS011;59226;53.212;5.728;2023-10-09T04:33:31;6.57;;;1.40;;
71413;SDS011;59226;53.212;5.728;2023-10-09T04:36:02;3.55;;;1.88;;
71413;SDS011;59226;53.212;5.728;2023-10-09T04:38:40;6.70;;;2.63;;
71413;SDS011;59226;53.212;5.728;2023-10-09T04:41:18;5.38;;;1.98;;
71413;SDS011;59226;53.212;5.728;2023-10-09T04:43:52;3.75;;;2.00;;
71413;SDS011;59226;53.212;5.728;2023-10-09T04:46:18;3.07;;;1.47;;
71413;SDS011;59226;53.212;5.728;2023-10-09T04:48:48;5.43;;;1.73;;
71413;SDS011;59226;53.212;5.728;2023-10-09T04:51:17;4.15;;;1.92;;
71413;SDS011;59226;53.212;5.728;2023-10-09T04:53:46;12.27;;;2.08;;
71413;SDS011;59226;53.212;5.728;2023-10-09T04:56:30;10.77;;;1.33;;
71413;SDS011;59226;53.212;5.728;2023-10-09T04:58:57;7.50;;;1.70;;
71413;SDS011;59226;53.212;5.728;2023-10-09T05:01:29;9.27;;;2.83;;
71413;SDS011;59226;53.212;5.728;2023-10-09T05:04:16;7.78;;;1.83;;
71413;SDS011;59226;53.212;5.728;2023-10-09T05:07:11;5.65;;;1.90;;
71413;SDS011;59226;53.212;5.728;2023-10-09T05:09:49;10.38;;;3.20;;
71413;SDS011;59226;53.212;5.728;2023-10-09T05:12:21;6.95;;;1.98;;
71413;SDS011;59226;53.212;5.728;2023-10-09T05:14:51;4.77;;;1.77;;
71413;SDS011;59226;53.212;5.728;2023-10-09T05:17:33;8.95;;;1.67;;
71413;SDS011;59226;53.212;5.728;2023-10-09T05:20:01;3.05;;;1.10;;
71413;SDS011;59226;53.212;5.728;2023-10-09T05:22:46;4.93;;;1.40;;
71413;SDS011;59226;53.212;5.728;2023-10-09T05:25:22;7.97;;;1.67;;
71413;SDS011;59226;53.212;5.728;2023-10-09T05:28:07;12.30;;;2.77;;
71413;SDS011;59226;53.212;5.728;2023-10-09T05:30:54;5.90;;;1.70;;
71413;SDS011;59226;53.212;5.728;2023-10-09T05:33:33;2.97;;;1.55;;
71413;SDS011;59226;53.212;5.728;2023-10-09T05:36:02;7.88;;;2.72;;
71413;SDS011;59226;53.212;5.728;2023-10-09T05:38:42;6.85;;;2.53;;
71413;SDS011;59226;53.212;5.728;2023-10-09T05:41:27;9.10;;;2.50;;
71413;SDS011;59226;53.212;5.728;2023-10-09T05:44:13;4.88;;;2.25;;
71413;SDS011;59226;53.212;5.728;2023-10-09T05:47:07;6.28;;;1.95;;
71413;SDS011;59226;53.212;5.728;2023-10-09T05:49:56;3.42;;;1.52;;
71413;SDS011;59226;53.212;5.728;2023-10-09T05:52:33;4.05;;;1.85;;
71413;SDS011;59226;53.212;5.728;2023-10-09T05:55:04;2.57;;;1.70;;
71413;SDS011;59226;53.212;5.728;2023-10-09T05:57:48;12.63;;;1.50;;
71413;SDS011;59226;53.212;5.728;2023-10-09T06:00:32;5.63;;;2.40;;
71413;SDS011;59226;53.212;5.728;2023-10-09T06:03:16;6.75;;;1.65;;
71413;SDS011;59226;53.212;5.728;2023-10-09T06:05:55;9.52;;;1.80;;
71413;SDS011;59226;53.212;5.728;2023-10-09T06:08:23;3.43;;;1.37;;
71413;SDS011;59226;53.212;5.728;2023-10-09T06:10:54;5.82;;;2.17;;
71413;SDS011;59226;53.212;5.728;2023-10-09T06:13:55;10.80;;;2.22;;
71413;SDS011;59226;53.212;5.728;2023-10-09T06:16:41;5.00;;;2.05;;
71413;SDS011;59226;53.212;5.728;2023-10-09T06:19:07;4.90;;;2.17;;
71413;SDS011;59226;53.212;5.728;2023-10-09T06:21:51;13.73;;;1.90;;
71413;SDS011;59226;53.212;5.728;2023-10-09T06:24:42;12.23;;;2.28;;
71413;SDS011;59226;53.212;5.728;2023-10-09T06:27:08;5.38;;;2.10;;
71413;SDS011;59226;53.212;5.728;2023-10-09T06:29:36;8.43;;;2.17;;
71413;SDS011;59226;53.212;5.728;2023-10-09T06:32:02;16.98;;;1.80;;
71413;SDS011;59226;53.212;5.728;2023-10-09T06:34:51;5.32;;;1.83;;
71413;SDS011;59226;53.212;5.728;2023-10-09T06:37:20;2.60;;;1.45;;
71413;SDS011;59226;53.212;5.728;2023-10-09T06:39:50;8.10;;;1.60;;
71413;SDS011;59226;53.212;5.728;2023-10-09T06:42:21;9.50;;;1.25;;
71413;SDS011;59226;53.212;5.728;2023-10-09T06:45:02;3.97;;;1.35;;
71413;SDS011;59226;53.212;5.728;2023-10-09T06:47:50;8.93;;;1.85;;
71413;SDS011;59226;53.212;5.728;2023-10-09T06:50:34;3.55;;;1.05;;
71413;SDS011;59226;53.212;5.728;2023-10-09T06:53:18;12.07;;;1.83;;
71413;SDS011;59226;53.212;5.728;2023-10-09T06:55:53;3.97;;;1.17;;
71413;SDS011;59226;53.212;5.728;2023-10-09T06:58:30;5.13;;;1.88;;
71413;SDS011;59226;53.212;5.728;2023-10-09T07:01:07;2.53;;;1.30;;
71413;SDS011;59226;53.212;5.728;2023-10-09T07:03:51;3.08;;;1.70;;
71413;SDS011;59226;53.212;5.728;2023-10-09T07:06:20;5.40;;;2.03;;
71413;SDS011;59226;53.212;5.728;2023-10-09T07:09:11;7.78;;;2.03;;
71413;SDS011;59226;53.212;5.728;2023-10-09T07:16:53;2.78;;;1.13;;
71413;SDS011;59226;53.212;5.728;2023-10-09T07:19:29;2.67;;;1.20;;
71413;SDS011;59226;53.212;5.728;2023-10-09T07:22:03;7.68;;;1.60;;
71413;SDS011;59226;53.212;5.728;2023-10-09T07:24:29;3.60;;;1.88;;
71413;SDS011;59226;53.212;5.728;2023-10-09T07:27:08;2.88;;;1.55;;
71413;SDS011;59226;53.212;5.728;2023-10-09T07:29:34;8.23;;;2.40;;
71413;SDS011;59226;53.212;5.728;2023-10-09T07:32:13;7.03;;;1.90;;
71413;SDS011;59226;53.212;5.728;2023-10-09T07:34:44;3.70;;;1.52;;
71413;SDS011;59226;53.212;5.728;2023-10-09T07:37:22;3.92;;;1.63;;
71413;SDS011;59226;53.212;5.728;2023-10-09T07:39:51;6.20;;;1.88;;
71413;SDS011;59226;53.212;5.728;2023-10-09T07:42:23;2.03;;;1.15;;
71413;SDS011;59226;53.212;5.728;2023-10-09T07:45:07;3.10;;;2.00;;
71413;SDS011;59226;53.212;5.728;2023-10-09T07:47:48;7.00;;;2.00;;
71413;SDS011;59226;53.212;5.728;2023-10-09T07:50:28;13.20;;;2.25;;
71413;SDS011;59226;53.212;5.728;2023-10-09T07:53:14;4.03;;;1.70;;
71413;SDS011;59226;53.212;5.728;2023-10-09T07:55:55;3.97;;;1.67;;
71413;SDS011;59226;53.212;5.728;2023-10-09T07:58:24;1.23;;;0.50;;
71413;SDS011;59226;53.212;5.728;2023-10-09T08:00:55;3.83;;;2.13;;
71413;SDS011;59226;53.212;5.728;2023-10-09T08:03:24;5.03;;;2.30;;
71413;SDS011;59226;53.212;5.728;2023-10-09T08:05:50;4.82;;;2.08;;
71413;SDS011;59226;53.212;5.728;2023-10-09T08:08:17;6.50;;;2.00;;
71413;SDS011;59226;53.212;5.728;2023-10-09T08:10:58;6.40;;;1.42;;
71413;SDS011;59226;53.212;5.728;2023-10-09T08:13:41;5.40;;;2.08;;
71413;SDS011;59226;53.212;5.728;2023-10-09T08:16:25;8.05;;;1.95;;
71413;SDS011;59226;53.212;5.728;2023-10-09T08:19:01;8.50;;;2.65;;
71413;SDS011;59226;53.212;5.728;2023-10-09T08:21:45;7.50;;;2.37;;
71413;SDS011;59226;53.212;5.728;2023-10-09T08:24:30;8.02;;;1.35;;
71413;SDS011;59226;53.212;5.728;2023-10-09T08:27:06;3.67;;;1.83;;
71413;SDS011;59226;53.212;5.728;2023-10-09T08:30:01;13.63;;;2.75;;
71413;SDS011;59226;53.212;5.728;2023-10-09T08:32:45;2.28;;;1.00;;
71413;SDS011;59226;53.212;5.728;2023-10-09T08:35:29;2.60;;;1.13;;
71413;SDS011;59226;53.212;5.728;2023-10-09T08:38:00;4.20;;;1.23;;
71413;SDS011;59226;53.212;5.728;2023-10-09T08:40:36;5.50;;;1.23;;
71413;SDS011;59226;53.212;5.728;2023-10-09T08:43:14;4.35;;;1.63;;
71413;SDS011;59226;53.212;5.728;2023-10-09T08:45:43;7.30;;;2.53;;
71413;SDS011;59226;53.212;5.728;2023-10-09T08:48:10;12.27;;;1.43;;
71413;SDS011;59226;53.212;5.728;2023-10-09T08:50:43;4.78;;;1.08;;
71413;SDS011;59226;53.212;5.728;2023-10-09T08:53:12;3.35;;;1.40;;
71413;SDS011;59226;53.212;5.728;2023-10-09T08:55:38;1.75;;;0.80;;
71413;SDS011;59226;53.212;5.728;2023-10-09T08:58:06;3.15;;;1.40;;
71413;SDS011;59226;53.212;5.728;2023-10-09T09:00:43;4.63;;;1.23;;
71413;SDS011;59226;53.212;5.728;2023-10-09T09:03:10;5.78;;;1.45;;
71413;SDS011;59226;53.212;5.728;2023-10-09T09:05:37;9.55;;;1.92;;
71413;SDS011;59226;53.212;5.728;2023-10-09T09:08:02;11.37;;;2.53;;
71413;SDS011;59226;53.212;5.728;2023-10-09T09:10:30;4.00;;;1.73;;
71413;SDS011;59226;53.212;5.728;2023-10-09T09:13:04;5.18;;;1.80;;
71413;SDS011;59226;53.212;5.728;2023-10-09T09:15:30;7.43;;;1.60;;
71413;SDS011;59226;53.212;5.728;2023-10-09T09:18:03;10.23;;;1.70;;
71413;SDS011;59226;53.212;5.728;2023-10-09T09:20:31;6.85;;;1.75;;
71413;SDS011;59226;53.212;5.728;2023-10-09T09:23:05;9.65;;;2.65;;
71413;SDS011;59226;53.212;5.728;2023-10-09T09:25:44;12.80;;;2.70;;
71413;SDS011;59226;53.212;5.728;2023-10-09T09:28:13;5.50;;;1.35;;
71413;SDS011;59226;53.212;5.728;2023-10-09T09:30:44;7.40;;;1.90;;
71413;SDS011;59226;53.212;5.728;2023-10-09T09:33:22;3.78;;;1.52;;
71413;SDS011;59226;53.212;5.728;2023-10-09T09:36:07;6.78;;;2.03;;
71413;SDS011;59226;53.212;5.728;2023-10-09T09:38:36;5.78;;;1.70;;
71413;SDS011;59226;53.212;5.728;2023-10-09T09:41:14;4.35;;;1.58;;
71413;SDS011;59226;53.212;5.728;2023-10-09T09:43:51;11.63;;;2.83;;
71413;SDS011;59226;53.212;5.728;2023-10-09T09:46:16;10.07;;;2.47;;
71413;SDS011;59226;53.212;5.728;2023-10-09T09:48:43;11.32;;;2.75;;
71413;SDS011;59226;53.212;5.728;2023-10-09T09:51:11;4.68;;;1.35;;
71413;SDS011;59226;53.212;5.728;2023-10-09T09:53:38;5.70;;;2.60;;
71413;SDS011;59226;53.212;5.728;2023-10-09T09:56:04;2.53;;;1.13;;
71413;SDS011;59226;53.212;5.728;2023-10-09T09:58:29;4.80;;;1.80;;
71413;SDS011;59226;53.212;5.728;2023-10-09T10:01:07;4.03;;;1.75;;
71413;SDS011;59226;53.212;5.728;2023-10-09T10:03:40;8.15;;;1.60;;
71413;SDS011;59226;53.212;5.728;2023-10-09T10:06:08;5.47;;;2.20;;
71413;SDS011;59226;53.212;5.728;2023-10-09T10:08:37;7.60;;;1.77;;
71413;SDS011;59226;53.212;5.728;2023-10-09T10:11:04;8.45;;;2.03;;
71413;SDS011;59226;53.212;5.728;2023-10-09T10:18:54;3.55;;;1.20;;
71413;SDS011;59226;53.212;5.728;2023-10-09T10:21:32;4.83;;;1.30;;
71413;SDS011;59226;53.212;5.728;2023-10-09T10:24:03;7.30;;;2.70;;
71413;SDS011;59226;53.212;5.728;2023-10-09T10:26:31;1.88;;;0.98;;
71413;SDS011;59226;53.212;5.728;2023-10-09T10:31:59;8.55;;;1.80;;
71413;SDS011;59226;53.212;5.728;2023-10-09T10:37:11;10.07;;;1.52;;
71413;SDS011;59226;53.212;5.728;2023-10-09T10:39:49;4.75;;;1.80;;
71413;SDS011;59226;53.212;5.728;2023-10-09T10:42:14;2.40;;;1.05;;
71413;SDS011;59226;53.212;5.728;2023-10-09T10:44:58;5.72;;;0.80;;
71413;SDS011;59226;53.212;5.728;2023-10-09T10:47:26;1.47;;;0.70;;
71413;SDS011;59226;53.212;5.728;2023-10-09T10:49:57;5.10;;;1.05;;
71413;SDS011;59226;53.212;5.728;2023-10-09T10:52:26;1.73;;;0.85;;
71413;SDS011;59226;53.212;5.728;2023-10-09T10:55:07;1.95;;;0.80;;
71413;SDS011;59226;53.212;5.728;2023-10-09T10:57:42;5.87;;;1.13;;
71413;SDS011;59226;53.212;5.728;2023-10-09T11:00:29;3.67;;;1.45;;
71413;SDS011;59226;53.212;5.728;2023-10-09T11:03:19;2.85;;;1.33;;
71413;SDS011;59226;53.212;5.728;2023-10-09T11:05:54;2.15;;;0.95;;
71413;SDS011;59226;53.212;5.728;2023-10-09T11:08:23;3.25;;;1.23;;
71413;SDS011;59226;53.212;5.728;2023-10-09T11:10:50;2.63;;;0.73;;
71413;SDS011;59226;53.212;5.728;2023-10-09T11:13:24;2.35;;;1.13;;
71413;SDS011;59226;53.212;5.728;2023-10-09T11:15:58;2.70;;;1.02;;
71413;SDS011;59226;53.212;5.728;2023-10-09T11:18:42;8.15;;;1.63;;
71413;SDS011;59226;53.212;5.728;2023-10-09T11:21:10;2.15;;;0.60;;
71413;SDS011;59226;53.212;5.728;2023-10-09T11:23:50;1.63;;;1.07;;
71413;SDS011;59226;53.212;5.728;2023-10-09T11:26:23;8.93;;;1.45;;
71413;SDS011;59226;53.212;5.728;2023-10-09T11:31:38;1.45;;;0.75;;
71413;SDS011;59226;53.212;5.728;2023-10-09T11:34:04;4.53;;;1.00;;
71413;SDS011;59226;53.212;5.728;2023-10-09T11:36:48;6.70;;;1.30;;
71413;SDS011;59226;53.212;5.728;2023-10-09T11:39:24;2.65;;;1.02;;
71413;SDS011;59226;53.212;5.728;2023-10-09T11:42:00;4.22;;;1.23;;
71413;SDS011;59226;53.212;5.728;2023-10-09T11:44:35;3.47;;;1.30;;
71413;SDS011;59226;53.212;5.728;2023-10-09T11:47:04;0.75;;;0.57;;
71413;SDS011;59226;53.212;5.728;2023-10-09T11:50:02;4.33;;;1.43;;
71413;SDS011;59226;53.212;5.728;2023-10-09T11:52:31;1.50;;;0.55;;
71413;SDS011;59226;53.212;5.728;2023-10-09T11:54:57;5.70;;;0.80;;
71413;SDS011;59226;53.212;5.728;2023-10-09T11:57:23;0.30;;;0.30;;
71413;SDS011;59226;53.212;5.728;2023-10-09T11:59:55;1.83;;;0.98;;
71413;SDS011;59226;53.212;5.728;2023-10-09T12:02:20;3.07;;;0.80;;
71413;SDS011;59226;53.212;5.728;2023-10-09T12:04:46;8.93;;;0.90;;
71413;SDS011;59226;53.212;5.728;2023-10-09T12:07:11;3.57;;;1.20;;
71413;SDS011;59226;53.212;5.728;2023-10-09T12:09:39;2.13;;;0.57;;
71413;SDS011;59226;53.212;5.728;2023-10-09T12:12:05;0.60;;;0.30;;
71413;SDS011;59226;53.212;5.728;2023-10-09T12:14:31;8.40;;;1.35;;
71413;SDS011;59226;53.212;5.728;2023-10-09T12:17:06;3.15;;;1.15;;
71413;SDS011;59226;53.212;5.728;2023-10-09T12:19:35;1.83;;;0.67;;
71413;SDS011;59226;53.212;5.728;2023-10-09T12:22:01;2.70;;;1.02;;
71413;SDS011;59226;53.212;5.728;2023-10-09T12:24:28;4.93;;;1.30;;
71413;SDS011;59226;53.212;5.728;2023-10-09T12:26:54;3.33;;;0.77;;
71413;SDS011;59226;53.212;5.728;2023-10-09T12:29:19;7.70;;;1.13;;
71413;SDS011;59226;53.212;5.728;2023-10-09T12:31:45;9.57;;;2.13;;
71413;SDS011;59226;53.212;5.728;2023-10-09T12:34:10;8.80;;;1.30;;
71413;SDS011;59226;53.212;5.728;2023-10-09T12:36:41;3.40;;;1.45;;
71413;SDS011;59226;53.212;5.728;2023-10-09T12:39:08;1.20;;;0.67;;
71413;SDS011;59226;53.212;5.728;2023-10-09T12:41:42;5.93;;;1.52;;
71413;SDS011;59226;53.212;5.728;2023-10-09T12:44:07;2.23;;;0.87;;
71413;SDS011;59226;53.212;5.728;2023-10-09T12:46:39;3.78;;;0.60;;
71413;SDS011;59226;53.212;5.728;2023-10-09T12:49:05;4.57;;;0.90;;
71413;SDS011;59226;53.212;5.728;2023-10-09T12:51:30;3.63;;;1.45;;
71413;SDS011;59226;53.212;5.728;2023-10-09T12:53:56;1.07;;;0.80;;
71413;SDS011;59226;53.212;5.728;2023-10-09T12:56:26;1.75;;;0.95;;
71413;SDS011;59226;53.212;5.728;2023-10-09T12:59:01;1.15;;;0.70;;
71413;SDS011;59226;53.212;5.728;2023-10-09T13:01:27;5.20;;;1.10;;
71413;SDS011;59226;53.212;5.728;2023-10-09T13:03:57;11.48;;;1.70;;
71413;SDS011;59226;53.212;5.728;2023-10-09T13:06:24;2.13;;;1.40;;
71413;SDS011;59226;53.212;5.728;2023-10-09T13:08:50;1.83;;;0.47;;
71413;SDS011;59226;53.212;5.728;2023-10-09T13:11:16;3.00;;;0.90;;
71413;SDS011;59226;53.212;5.728;2023-10-09T13:13:42;1.67;;;0.70;;
71413;SDS011;59226;53.212;5.728;2023-10-09T13:16:09;2.15;;;0.73;;
71413;SDS011;59226;53.212;5.728;2023-10-09T13:18:40;1.02;;;0.73;;
71413;SDS011;59226;53.212;5.728;2023-10-09T13:21:05;1.55;;;0.93;;
71413;SDS011;59226;53.212;5.728;2023-10-09T13:23:31;3.63;;;1.20;;
71413;SDS011;59226;53.212;5.728;2023-10-09T13:26:05;8.03;;;1.20;;
71413;SDS011;59226;53.212;5.728;2023-10-09T13:28:42;3.83;;;1.25;;
71413;SDS011;59226;53.212;5.728;2023-10-09T13:31:10;4.95;;;1.35;;
71413;SDS011;59226;53.212;5.728;2023-10-09T13:33:39;1.63;;;0.50;;
71413;SDS011;59226;53.212;5.728;2023-10-09T13:36:04;1.93;;;0.90;;
71413;SDS011;59226;53.212;5.728;2023-10-09T13:38:40;1.60;;;0.80;;
71413;SDS011;59226;53.212;5.728;2023-10-09T13:41:08;6.05;;;1.08;;
71413;SDS011;59226;53.212;5.728;2023-10-09T13:43:38;1.70;;;0.82;;
71413;SDS011;59226;53.212;5.728;2023-10-09T13:46:06;3.10;;;1.13;;
71413;SDS011;59226;53.212;5.728;2023-10-09T13:48:31;7.73;;;0.70;;
71413;SDS011;59226;53.212;5.728;2023-10-09T13:51:03;0.90;;;0.60;;
71413;SDS011;59226;53.212;5.728;2023-10-09T13:53:32;2.40;;;1.23;;
71413;SDS011;59226;53.212;5.728;2023-10-09T13:55:57;0.77;;;0.50;;
71413;SDS011;59226;53.212;5.728;2023-10-09T13:58:23;1.80;;;0.70;;
71413;SDS011;59226;53.212;5.728;2023-10-09T14:00:49;5.25;;;1.23;;
71413;SDS011;59226;53.212;5.728;2023-10-09T14:03:15;1.43;;;1.00;;
71413;SDS011;59226;53.212;5.728;2023-10-09T14:05:44;3.88;;;0.70;;
71413;SDS011;59226;53.212;5.728;2023-10-09T14:08:35;5.50;;;1.27;;
71413;SDS011;59226;53.212;5.728;2023-10-09T14:11:00;3.53;;;0.80;;
71413;SDS011;59226;53.212;5.728;2023-10-09T14:13:28;2.58;;;0.57;;
71413;SDS011;59226;53.212;5.728;2023-10-09T14:15:54;1.87;;;1.30;;
71413;SDS011;59226;53.212;5.728;2023-10-09T14:18:20;2.63;;;0.97;;
71413;SDS011;59226;53.212;5.728;2023-10-09T14:20:48;2.87;;;0.90;;
71413;SDS011;59226;53.212;5.728;2023-10-09T14:23:14;0.30;;;0.25;;
71413;SDS011;59226;53.212;5.728;2023-10-09T14:25:45;1.38;;;0.73;;
71413;SDS011;59226;53.212;5.728;2023-10-09T14:28:14;4.00;;;0.80;;
71413;SDS011;59226;53.212;5.728;2023-10-09T14:30:43;1.27;;;0.45;;
71413;SDS011;59226;53.212;5.728;2023-10-09T14:33:13;3.60;;;0.63;;
71413;SDS011;59226;53.212;5.728;2023-10-09T14:35:39;7.00;;;1.10;;
71413;SDS011;59226;53.212;5.728;2023-10-09T14:38:04;2.53;;;1.55;;
71413;SDS011;59226;53.212;5.728;2023-10-09T14:40:36;1.55;;;0.82;;
71413;SDS011;59226;53.212;5.728;2023-10-09T14:43:06;3.75;;;0.60;;
71413;SDS011;59226;53.212;5.728;2023-10-09T14:45:35;0.97;;;0.33;;
71413;SDS011;59226;53.212;5.728;2023-10-09T14:48:01;1.35;;;0.65;;
71413;SDS011;59226;53.212;5.728;2023-10-09T14:50:26;0.50;;;0.30;;
71413;SDS011;59226;53.212;5.728;2023-10-09T14:52:51;3.23;;;0.70;;
71413;SDS011;59226;53.212;5.728;2023-10-09T14:55:17;4.63;;;1.07;;
71413;SDS011;59226;53.212;5.728;2023-10-09T14:57:56;1.13;;;0.45;;
71413;SDS011;59226;53.212;5.728;2023-10-09T15:00:23;1.77;;;0.55;;
71413;SDS011;59226;53.212;5.728;2023-10-09T15:02:49;2.87;;;0.57;;
71413;SDS011;59226;53.212;5.728;2023-10-09T15:05:16;5.10;;;0.60;;
71413;SDS011;59226;53.212;5.728;2023-10-09T15:07:41;4.43;;;0.97;;
71413;SDS011;59226;53.212;5.728;2023-10-09T15:10:07;1.07;;;0.47;;
71413;SDS011;59226;53.212;5.728;2023-10-09T15:12:34;3.58;;;1.00;;
71413;SDS011;59226;53.212;5.728;2023-10-09T15:15:04;4.97;;;1.02;;
71413;SDS011;59226;53.212;5.728;2023-10-09T15:17:36;1.20;;;0.40;;
71413;SDS011;59226;53.212;5.728;2023-10-09T15:20:02;1.70;;;0.60;;
71413;SDS011;59226;53.212;5.728;2023-10-09T15:22:27;0.40;;;0.30;;
71413;SDS011;59226;53.212;5.728;2023-10-09T15:25:00;1.48;;;0.77;;
71413;SDS011;59226;53.212;5.728;2023-10-09T15:27:25;0.63;;;0.40;;
71413;SDS011;59226;53.212;5.728;2023-10-09T15:29:50;1.10;;;0.97;;
71413;SDS011;59226;53.212;5.728;2023-10-09T15:32:16;4.83;;;1.00;;
71413;SDS011;59226;53.212;5.728;2023-10-09T15:34:47;3.13;;;0.93;;